Val-d'Or Airport
CYVO : now visible

Airfield :











YOU CAN JOIN US ON...

 
LOGIN :

Register | Disclaimer

   EN    FR    IT 

 









Legend :    VFR   Marginal VFR   IFR   Intensive IFR   Very Intensive IFR
Visi :
Ceiling :
>= 8 km
>= 3000ft
5 to 8 km
1000 to 3000 ft
1500m to 5 km
500 to 1000 ft
800 to 1500m
200 to 500 ft
< 800m
< 200 ft
Symbols :   Thunderstorms  Fog  Heavy snow  Heavy precipitations  Wind > 20 kt






- Airport Elevation : 1107 ft
- IATA code : YVO


CYVO - Val-d'Or

CURRENT METAR :
  • 230200Z 32011G16KT 15SM SCT094 M18/M20 A2990 RMK AC3 SLP163

EXPIRED METARs :
  • 230100Z 32008KT 15SM IC FEW032 SCT095 M17/M20 A2988 RMK SC2AC2 SLP154
  • 230014Z 32007KT 15SM IC BKN095 M17/M19 A2987 RMK AC5 SLP150
  • 230000Z 33008KT 15SM -SN SCT025 BKN095 M17/M19 A2986 RMK SC3AC2 SLP149

TAF TAF CYVO
Valid from the 23 at 00:00 until the 23 at 12:00 UTC


222338Z 2300/2312 33008G18KT P6SM -SN FEW020 BKN040 BKN070
TEMPO 2300/2301 2SM -SN BKN015 OVC025
FM230100 34008G18KT P6SM SCT020 BKN040
TEMPO 2301/2312 OVC020 RMK NXT FCST BY 230600Z
CZUL FIR / North America



MET'MAP, your aeronautical weather chart ! - Copyright ORBIFLY December 2007 - Disclaimer

ORBIFLY MET'MAP TEAM :

Programming & Development : Alexandra Zaïnal
Concept & original design : Baudouin d'Aumeries
Assistance for programming : Marc-Olivier Méhu
Technical & hardware support : Manuel Goepfert

Contact : metmap@orbifly.com




SOURCES & CREDITS :

   NOAA       Earth
Advisory